Blaydon-on-Tyne, United Kingdom
Current Conditions -  °F | °C
As of 5:20 PM on Friday 24 Oct 2014 (Local Time) from EGNT Reporting Station
Few Clouds Few Clouds  
Wind Chill: 50°   Ceiling: Unl
Heat Index: 50°   Visibility: 6mi
Dew Point: 41°   Wind: 7mph
Humidity: 71%   Direction: 250°WSW
Pressure: 29.77"   Gusts: NA
Location:  54.96°N, 1.72°W
Report Text: EGNT 241620Z 25006KT 9999 FEW045 10/05 Q1008
Loading
Personal Weather Stations






























Interactive Weather Map
Tropical Storm Tracking
New forecast layout! Learn more

10-Day Weather Forecast

Advertisements
Track Severe Weather on mobile